Time;durP1;ratioP1;P1;durP2;ratioP2;P2;SDS_P1;SDS_P2;PMS_P1;PMS_P2;Temp;Humidity;BMP_temperature;BMP_pressure;BME280_temperature;BME280_humidity;BME280_pressure;Samples;Min_cycle;Max_cycle;Signal;HPM_P1;HPM_P2
2023/09/01 00:00:15;;;;;;;0.03;0.00;;;;;;;16.80;100.00;100826.22;5047434;28;20079;-82
2023/09/01 00:02:41;;;;;;;0.00;0.00;;;;;;;16.82;100.00;100818.97;5045318;28;20044;-82
2023/09/01 00:05:07;;;;;;;0.00;0.00;;;;;;;16.81;100.00;100822.59;5049598;28;20037;-82
2023/09/01 00:07:32;;;;;;;0.00;0.00;;;;;;;16.77;100.00;100820.47;5043458;28;20028;-82
2023/09/01 00:09:58;;;;;;;0.00;0.00;;;;;;;16.75;100.00;100828.56;5030781;28;20034;-82
2023/09/01 00:12:24;;;;;;;0.00;0.00;;;;;;;16.76;100.00;100835.44;5038844;28;20049;-82
2023/09/01 00:14:49;;;;;;;0.00;0.00;;;;;;;16.74;100.00;100834.00;5030932;28;20529;-82
2023/09/01 00:17:15;;;;;;;0.00;0.00;;;;;;;16.69;100.00;100838.94;5045950;28;20033;-82
2023/09/01 00:19:40;;;;;;;0.00;0.00;;;;;;;16.71;100.00;100831.72;5034805;28;20049;-82
2023/09/01 00:22:06;;;;;;;0.00;0.00;;;;;;;16.69;100.00;100837.13;5053075;28;20487;-82
2023/09/01 00:24:32;;;;;;;0.00;0.00;;;;;;;16.71;100.00;100842.22;5053092;28;20425;-82
2023/09/01 00:27:01;;;;;;;0.00;0.00;;;;;;;16.70;100.00;100837.97;5039306;28;20025;-82
2023/09/01 00:29:27;;;;;;;0.00;0.00;;;;;;;16.65;100.00;100838.47;5041075;28;20061;-82
2023/09/01 00:31:52;;;;;;;0.00;0.00;;;;;;;16.63;100.00;100842.25;5045146;28;20067;-83
2023/09/01 00:34:18;;;;;;;0.00;0.00;;;;;;;16.60;100.00;100841.59;5052787;28;20034;-82
2023/09/01 00:36:43;;;;;;;0.00;0.00;;;;;;;16.60;100.00;100846.03;5032124;28;20041;-81
2023/09/01 00:39:09;;;;;;;0.00;0.00;;;;;;;16.63;100.00;100842.25;5041391;28;20053;-82
2023/09/01 00:41:35;;;;;;;0.00;0.00;;;;;;;16.62;100.00;100844.06;5045411;28;20029;-82
2023/09/01 00:44:01;;;;;;;0.00;0.00;;;;;;;16.62;100.00;100844.06;5041846;28;20025;-82
2023/09/01 00:46:28;;;;;;;0.00;0.00;;;;;;;16.62;100.00;100838.78;5032982;28;20204;-82
2023/09/01 00:48:56;;;;;;;0.00;0.00;;;;;;;16.63;100.00;100837.81;5047607;28;20079;-82
2023/09/01 00:51:22;;;;;;;0.00;0.00;;;;;;;16.65;100.00;100835.84;5031064;28;20029;-82
2023/09/01 00:53:47;;;;;;;0.00;0.00;;;;;;;16.63;100.00;100837.00;5038354;28;20115;-82
2023/09/01 00:56:13;;;;;;;0.00;0.00;;;;;;;16.66;100.00;100839.31;5036616;28;20108;-81
2023/09/01 00:58:39;;;;;;;0.00;0.00;;;;;;;16.69;100.00;100842.41;5044695;28;20037;-81
2023/09/01 01:01:04;;;;;;;0.00;0.00;;;;;;;16.71;100.00;100843.03;5039490;28;20026;-82
2023/09/01 01:03:32;;;;;;;0.00;0.00;;;;;;;16.78;100.00;100853.69;5036404;28;20195;-82
2023/09/01 01:06:00;;;;;;;0.00;0.00;;;;;;;16.81;100.00;100856.78;5055528;28;20419;-82
2023/09/01 01:08:47;;;;;;;0.00;0.00;;;;;;;16.79;100.00;100853.53;5052211;28;20580;-82
2023/09/01 01:11:51;;;;;;;0.00;0.00;;;;;;;16.71;100.00;100853.56;5033553;28;20394;-82
2023/09/01 01:14:24;;;;;;;0.00;0.00;;;;;;;16.64;100.00;100849.16;5047216;28;20068;-81
2023/09/01 01:16:51;;;;;;;0.00;0.00;;;;;;;16.56;100.00;100844.75;5040652;28;20041;-83
2023/09/01 01:19:50;;;;;;;0.00;0.00;;;;;;;16.48;100.00;100845.66;5045349;28;20087;-82
2023/09/01 01:22:40;;;;;;;0.00;0.00;;;;;;;16.47;100.00;100858.97;5034431;28;20446;-83
2023/09/01 01:25:10;;;;;;;0.00;0.00;;;;;;;16.41;100.00;100847.31;5037534;28;20047;-82
2023/09/01 01:27:39;;;;;;;0.00;0.00;;;;;;;16.28;100.00;100852.31;5049584;28;20033;-83
2023/09/01 01:30:05;;;;;;;0.00;0.00;;;;;;;16.18;100.00;100849.91;5043314;28;20032;-83
2023/09/01 01:32:32;;;;;;;0.00;0.00;;;;;;;16.11;100.00;100846.31;5047702;28;20033;-82
2023/09/01 01:35:21;;;;;;;0.10;0.00;;;;;;;16.05;100.00;100847.03;5028579;28;20042;-82
2023/09/01 01:38:13;;;;;;;0.00;0.00;;;;;;;16.01;100.00;100840.47;5037176;28;20041;-82
2023/09/01 01:40:41;;;;;;;0.00;0.00;;;;;;;16.00;100.00;100843.25;5053056;28;20045;-83
2023/09/01 01:43:10;;;;;;;0.00;0.00;;;;;;;15.96;100.00;100842.78;5061324;28;20119;-83
2023/09/01 01:45:40;;;;;;;0.00;0.00;;;;;;;15.98;100.00;100840.00;5040273;28;20061;-82
2023/09/01 01:48:05;;;;;;;0.00;0.00;;;;;;;15.97;100.00;100841.78;5052654;28;20044;-82
2023/09/01 01:50:32;;;;;;;0.00;0.00;;;;;;;15.94;100.00;100836.88;5069012;28;20028;-82
2023/09/01 01:52:58;;;;;;;0.00;0.00;;;;;;;15.97;100.00;100836.53;5049641;28;20123;-83
2023/09/01 01:55:24;;;;;;;0.00;0.00;;;;;;;15.97;100.00;100827.84;5042150;28;20026;-83
2023/09/01 01:57:49;;;;;;;0.00;0.00;;;;;;;16.00;100.00;100830.13;5023221;28;20414;-82
2023/09/01 02:00:15;;;;;;;0.00;0.00;;;;;;;16.03;100.00;100833.22;5045856;28;20025;-82
2023/09/01 02:02:42;;;;;;;0.00;0.00;;;;;;;16.08;100.00;100830.06;5041056;28;20079;-82
2023/09/01 02:05:08;;;;;;;0.00;0.00;;;;;;;16.09;100.00;100827.25;5049140;28;20029;-82
2023/09/01 02:07:34;;;;;;;0.00;0.00;;;;;;;16.09;100.00;100829.88;5049632;28;20028;-82
2023/09/01 02:10:00;;;;;;;0.00;0.00;;;;;;;16.11;100.00;100833.16;5033019;28;20083;-82
2023/09/01 02:12:26;;;;;;;0.00;0.00;;;;;;;16.07;100.00;100838.97;5046740;28;20538;-82
2023/09/01 02:14:51;;;;;;;0.00;0.00;;;;;;;15.99;100.00;100828.50;5049085;28;20106;-83
2023/09/01 02:17:17;;;;;;;0.03;0.00;;;;;;;16.00;100.00;100833.56;5040362;28;20396;-83
2023/09/01 02:19:42;;;;;;;0.00;0.00;;;;;;;16.01;100.00;100829.97;5040058;28;20057;-83
2023/09/01 02:22:08;;;;;;;0.00;0.00;;;;;;;16.02;100.00;100830.78;5032538;28;20025;-83
2023/09/01 02:24:33;;;;;;;0.00;0.00;;;;;;;16.09;100.00;100834.34;5056824;28;20030;-83
2023/09/01 02:26:59;;;;;;;0.00;0.00;;;;;;;16.10;100.00;100833.34;5057282;28;20410;-83
2023/09/01 02:29:24;;;;;;;0.00;0.00;;;;;;;16.02;100.00;100836.03;5046839;28;20033;-83
2023/09/01 02:31:49;;;;;;;0.00;0.00;;;;;;;15.98;100.00;100829.47;5050011;28;20037;-83
2023/09/01 02:34:15;;;;;;;0.00;0.00;;;;;;;15.97;100.00;100823.41;5047706;28;20033;-82
2023/09/01 02:36:40;;;;;;;0.00;0.00;;;;;;;16.00;100.00;100833.56;5033528;28;20040;-83
2023/09/01 02:39:06;;;;;;;0.00;0.00;;;;;;;16.10;100.00;100822.81;5039190;28;20103;-83
2023/09/01 02:41:32;;;;;;;0.00;0.00;;;;;;;16.21;100.00;100831.16;5039442;28;20484;-83
2023/09/01 02:43:57;;;;;;;0.00;0.00;;;;;;;16.23;100.00;100842.31;5046356;28;20035;-83
2023/09/01 02:46:23;;;;;;;0.00;0.00;;;;;;;16.31;100.00;100846.72;5045681;28;20037;-83
2023/09/01 02:48:49;;;;;;;0.00;0.00;;;;;;;16.23;100.00;100847.56;5036121;28;20028;-83
2023/09/01 02:51:15;;;;;;;0.03;0.00;;;;;;;16.17;100.00;100842.19;5039632;28;20399;-82
2023/09/01 02:53:41;;;;;;;0.00;0.00;;;;;;;16.10;100.00;100835.97;5039977;28;20049;-83
2023/09/01 02:56:06;;;;;;;0.00;0.00;;;;;;;15.98;100.00;100840.81;5051478;28;20040;-83
2023/09/01 02:58:32;;;;;;;0.00;0.00;;;;;;;15.95;100.00;100837.69;5044721;28;20025;-83
2023/09/01 03:00:58;;;;;;;0.00;0.00;;;;;;;16.01;100.00;100845.72;5043582;28;20079;-82
2023/09/01 03:03:24;;;;;;;0.00;0.00;;;;;;;15.96;100.00;100850.66;5047167;28;20032;-83
2023/09/01 03:05:51;;;;;;;0.03;0.00;;;;;;;15.91;100.00;100845.09;5044990;28;20086;-83
2023/09/01 03:08:23;;;;;;;0.20;0.00;;;;;;;15.90;100.00;100843.47;5032847;28;20029;-83
2023/09/01 03:10:49;;;;;;;0.00;0.00;;;;;;;15.90;100.00;100846.91;5053852;28;20032;-83
2023/09/01 03:13:15;;;;;;;0.00;0.00;;;;;;;15.91;100.00;100853.81;5083469;28;20009;-83
2023/09/01 03:15:41;;;;;;;0.00;0.00;;;;;;;15.90;100.00;100854.78;5079934;28;20108;-82
2023/09/01 03:18:08;;;;;;;0.05;0.00;;;;;;;15.94;100.00;100855.28;5075784;28;20040;-82
2023/09/01 03:20:34;;;;;;;0.05;0.00;;;;;;;15.92;100.00;100846.75;5063801;28;20021;-83
2023/09/01 03:23:00;;;;;;;0.13;0.00;;;;;;;15.90;100.00;100849.53;5089317;28;20025;-84
2023/09/01 03:25:25;;;;;;;0.00;0.00;;;;;;;15.87;100.00;100841.16;5069373;28;20017;-83
2023/09/01 03:27:51;;;;;;;0.00;0.00;;;;;;;15.85;100.00;100840.53;5071671;28;20032;-83
2023/09/01 03:30:16;;;;;;;0.00;0.00;;;;;;;15.81;100.00;100832.16;5071100;28;20044;-82
2023/09/01 03:32:41;;;;;;;0.00;0.00;;;;;;;15.81;100.00;100832.16;5061498;28;20088;-82
2023/09/01 03:35:07;;;;;;;0.10;0.00;;;;;;;15.78;100.00;100829.03;5064578;28;20037;-81
2023/09/01 03:37:33;;;;;;;0.00;0.00;;;;;;;15.77;100.00;100819.53;5074815;28;20033;-82
2023/09/01 03:39:59;;;;;;;0.00;0.00;;;;;;;15.81;100.00;100824.28;5069994;28;20005;-83
2023/09/01 03:42:25;;;;;;;0.00;0.00;;;;;;;15.87;100.00;100826.22;5075444;28;20097;-82
2023/09/01 03:44:51;;;;;;;0.00;0.00;;;;;;;15.92;100.00;100841.47;5073748;28;20032;-83
2023/09/01 03:47:18;;;;;;;0.00;0.00;;;;;;;15.92;100.00;100842.31;5073389;28;20033;-84
2023/09/01 03:49:43;;;;;;;0.03;0.00;;;;;;;15.95;100.00;100842.94;5075435;28;20009;-84
2023/09/01 03:52:09;;;;;;;0.00;0.00;;;;;;;15.99;100.00;100841.63;5072824;28;20016;-84
2023/09/01 03:54:34;;;;;;;0.00;0.00;;;;;;;16.06;100.00;100840.78;5069927;28;20026;-84
2023/09/01 03:57:00;;;;;;;0.00;0.00;;;;;;;16.10;100.00;100842.03;5064875;28;20037;-83
2023/09/01 03:59:25;;;;;;;0.00;0.00;;;;;;;16.07;100.00;100847.66;5075125;28;20017;-84
2023/09/01 04:01:51;;;;;;;0.00;0.00;;;;;;;16.02;100.00;100852.63;5092344;28;20037;-83
2023/09/01 04:04:18;;;;;;;0.00;0.00;;;;;;;15.96;100.00;100850.66;5079127;28;20371;-84
2023/09/01 04:06:43;;;;;;;0.00;0.00;;;;;;;15.86;100.00;100848.22;5050707;28;20500;-83
2023/09/01 04:09:09;;;;;;;0.00;0.00;;;;;;;15.85;100.00;100856.28;5049502;28;20158;-84
2023/09/01 04:11:35;;;;;;;0.00;0.00;;;;;;;15.81;100.00;100849.72;5049387;28;20497;-83
2023/09/01 04:14:01;;;;;;;0.00;0.00;;;;;;;15.76;100.00;100852.84;5057554;28;20470;-83
2023/09/01 04:16:27;;;;;;;0.00;0.00;;;;;;;15.74;100.00;100864.53;5043068;28;20033;-83
2023/09/01 04:18:54;;;;;;;0.00;0.00;;;;;;;15.74;100.00;100865.34;5060140;28;20116;-83
2023/09/01 04:21:20;;;;;;;0.00;0.00;;;;;;;15.76;100.00;100854.66;5049561;28;20037;-83
2023/09/01 04:23:45;;;;;;;0.00;0.00;;;;;;;15.79;100.00;100851.69;5047893;28;20375;-82
2023/09/01 04:26:12;;;;;;;0.00;0.00;;;;;;;15.81;100.00;100852.34;5031277;28;20030;-82
2023/09/01 04:28:37;;;;;;;0.00;0.00;;;;;;;15.82;100.00;100864.50;5043294;28;20057;-83
2023/09/01 04:31:36;;;;;;;0.00;0.00;;;;;;;15.86;100.00;100857.91;5030687;28;20072;-83
2023/09/01 04:34:02;;;;;;;0.00;0.00;;;;;;;15.85;100.00;100862.34;5052153;28;20502;-83
2023/09/01 04:36:28;;;;;;;0.00;0.00;;;;;;;15.86;100.00;100857.91;5051699;28;20028;-83
2023/09/01 04:38:54;;;;;;;0.10;0.00;;;;;;;15.85;100.00;100867.63;5055739;28;20471;-83
2023/09/01 04:41:19;;;;;;;0.00;0.00;;;;;;;15.85;100.00;100866.78;5046161;28;20033;-83
2023/09/01 04:43:45;;;;;;;0.00;0.00;;;;;;;15.84;100.00;100860.72;5048326;28;20505;-83
2023/09/01 04:46:10;;;;;;;0.00;0.00;;;;;;;15.86;100.00;100864.00;5051575;28;20543;-83
2023/09/01 04:48:36;;;;;;;0.00;0.00;;;;;;;15.85;100.00;100870.25;5039190;28;20026;-82
2023/09/01 04:51:02;;;;;;;0.00;0.00;;;;;;;15.85;100.00;100872.88;5051745;28;20119;-83
2023/09/01 04:53:28;;;;;;;0.10;0.00;;;;;;;15.82;100.00;100875.84;5039344;28;20132;-83
2023/09/01 04:55:55;;;;;;;0.00;0.00;;;;;;;15.84;100.00;100873.84;5057834;28;20533;-83
2023/09/01 04:58:20;;;;;;;0.00;0.00;;;;;;;15.83;100.00;100869.59;5046198;28;20033;-83
2023/09/01 05:00:47;;;;;;;0.00;0.00;;;;;;;15.85;100.00;100869.41;5052450;28;20041;-83
2023/09/01 05:03:12;;;;;;;0.00;0.00;;;;;;;15.86;100.00;100864.00;5045158;28;20071;-83
2023/09/01 05:05:38;;;;;;;0.00;0.00;;;;;;;15.91;100.00;100866.13;5044902;28;20037;-83
2023/09/01 05:08:03;;;;;;;0.00;0.00;;;;;;;15.95;100.00;100862.16;5049555;28;20033;-83
2023/09/01 05:10:29;;;;;;;0.00;0.00;;;;;;;15.99;100.00;100858.22;5042933;28;20029;-82
2023/09/01 05:12:55;;;;;;;0.05;0.05;;;;;;;16.03;100.00;100862.16;5053951;28;20113;-83
2023/09/01 05:15:20;;;;;;;0.10;0.00;;;;;;;16.05;100.00;100856.72;5040846;28;20448;-82
2023/09/01 05:17:46;;;;;;;0.95;0.00;;;;;;;16.06;100.00;100864.44;5049266;28;20048;-83
2023/09/01 05:20:11;;;;;;;0.05;0.00;;;;;;;16.08;100.00;100862.41;5053894;28;20397;-83
2023/09/01 05:22:37;;;;;;;0.00;0.00;;;;;;;16.18;100.00;100867.47;5050147;28;20028;-82
2023/09/01 05:25:03;;;;;;;0.10;0.00;;;;;;;16.22;100.00;100872.22;5035826;28;20028;-83
2023/09/01 05:27:29;;;;;;;0.00;0.00;;;;;;;16.30;100.00;100878.44;5041761;28;20045;-83
2023/09/01 05:29:54;;;;;;;0.00;0.00;;;;;;;16.41;100.00;100878.06;5039012;28;20029;-83
2023/09/01 05:32:20;;;;;;;0.00;0.00;;;;;;;16.52;100.00;100880.31;5040587;28;20032;-83
2023/09/01 05:34:46;;;;;;;0.00;0.00;;;;;;;16.55;100.00;100875.50;5036253;28;20045;-83
2023/09/01 05:37:12;;;;;;;0.00;0.00;;;;;;;16.60;100.00;100880.25;5057730;28;20635;-83
2023/09/01 05:39:41;;;;;;;0.03;0.00;;;;;;;16.59;100.00;100889.13;5056505;28;20478;-83
2023/09/01 05:42:08;;;;;;;0.00;0.00;;;;;;;16.53;100.00;100887.22;5049155;28;20072;-82
2023/09/01 05:44:33;;;;;;;0.10;0.00;;;;;;;16.50;100.00;100882.28;5042171;28;20090;-83
2023/09/01 05:46:59;;;;;;;0.00;0.00;;;;;;;16.47;100.00;100888.72;5049707;28;20457;-83
2023/09/01 05:49:25;;;;;;;0.00;0.00;;;;;;;16.41;100.00;100885.94;5046521;28;20124;-83
2023/09/01 05:51:51;;;;;;;0.00;0.00;;;;;;;16.40;100.00;100897.47;5045318;28;20098;-82
2023/09/01 05:54:18;;;;;;;0.00;0.00;;;;;;;16.39;100.00;100890.56;5050282;28;20048;-83
2023/09/01 05:56:43;;;;;;;0.00;0.00;;;;;;;16.37;100.00;100897.81;5050473;28;20539;-83
2023/09/01 05:59:09;;;;;;;0.00;0.00;;;;;;;16.37;100.00;100895.19;5055069;28;20029;-83
2023/09/01 06:01:36;;;;;;;0.10;0.00;;;;;;;16.37;100.00;100892.53;5052197;28;20061;-83
2023/09/01 06:04:03;;;;;;;0.00;0.00;;;;;;;16.33;100.00;100902.59;5053817;28;20080;-83
2023/09/01 06:06:30;;;;;;;0.00;0.00;;;;;;;16.33;100.00;100905.22;5064052;28;20032;-83
2023/09/01 06:08:55;;;;;;;0.00;0.00;;;;;;;16.35;100.00;100905.88;5052775;28;20086;-83
2023/09/01 06:11:21;;;;;;;0.00;0.00;;;;;;;16.36;100.00;100909.31;5053376;28;20033;-83
2023/09/01 06:13:48;;;;;;;0.00;0.00;;;;;;;16.39;100.00;100911.59;5048199;28;20040;-82
2023/09/01 06:16:13;;;;;;;0.10;0.00;;;;;;;16.40;100.00;100918.50;5053470;28;20037;-84
2023/09/01 06:18:38;;;;;;;0.00;0.00;;;;;;;16.33;100.00;100917.53;5052760;28;20596;-83
2023/09/01 06:21:04;;;;;;;0.00;0.00;;;;;;;16.31;100.00;100930.03;5049099;28;20075;-83
2023/09/01 06:23:29;;;;;;;0.00;0.00;;;;;;;16.31;100.00;100927.41;5046796;28;20033;-83
2023/09/01 06:25:55;;;;;;;0.10;0.00;;;;;;;16.29;100.00;100932.03;5048322;28;20120;-83
2023/09/01 06:28:20;;;;;;;0.00;0.00;;;;;;;16.27;100.00;100930.38;5047348;28;20047;-82
2023/09/01 06:30:46;;;;;;;0.00;0.00;;;;;;;16.27;100.00;100934.81;5057260;28;20048;-83
2023/09/01 06:33:11;;;;;;;0.00;0.00;;;;;;;16.28;100.00;100931.19;5054359;28;20474;-82
2023/09/01 06:35:37;;;;;;;0.00;0.00;;;;;;;16.31;100.00;100936.13;5057052;28;20033;-83
2023/09/01 06:38:05;;;;;;;0.00;0.00;;;;;;;16.34;100.00;100932.31;5042539;28;20032;-82
2023/09/01 06:40:31;;;;;;;0.00;0.00;;;;;;;16.39;100.00;100940.53;5067288;28;20033;-82
2023/09/01 06:42:56;;;;;;;0.00;0.00;;;;;;;16.44;100.00;100935.59;5046701;28;20035;-83
2023/09/01 06:45:22;;;;;;;0.00;0.00;;;;;;;16.46;100.00;100933.59;5058874;28;20040;-82
2023/09/01 06:47:52;;;;;;;0.00;0.00;;;;;;;16.50;100.00;100940.97;5052006;28;20028;-83
2023/09/01 06:50:18;;;;;;;0.00;0.00;;;;;;;16.55;100.00;100933.38;5055124;28;20033;-82
2023/09/01 06:52:45;;;;;;;0.00;0.00;;;;;;;16.57;100.00;100933.19;5051839;28;20509;-83
2023/09/01 06:55:11;;;;;;;0.03;0.00;;;;;;;16.60;100.00;100935.47;5051366;28;20025;-83
2023/09/01 06:57:37;;;;;;;0.00;0.00;;;;;;;16.63;100.00;100939.59;5049716;28;20029;-83
2023/09/01 07:00:03;;;;;;;0.13;0.00;;;;;;;16.67;100.00;100941.72;5051414;28;20025;-83
2023/09/01 07:02:29;;;;;;;0.00;0.00;;;;;;;16.71;100.00;100943.03;5049965;28;20120;-83
2023/09/01 07:04:55;;;;;;;0.00;0.00;;;;;;;16.74;100.00;100945.31;5045247;28;20120;-82
2023/09/01 07:07:21;;;;;;;0.00;0.00;;;;;;;16.80;100.00;100943.81;5041171;28;20040;-82
2023/09/01 07:09:47;;;;;;;0.00;0.00;;;;;;;16.86;100.00;100946.56;5034096;28;20450;-82
2023/09/01 07:12:12;;;;;;;0.00;0.00;;;;;;;16.89;100.00;100945.41;5044065;28;20139;-82
2023/09/01 07:14:38;;;;;;;0.00;0.00;;;;;;;16.92;100.00;100960.84;5030956;28;20051;-83
2023/09/01 07:17:05;;;;;;;0.00;0.00;;;;;;;16.92;100.00;100952.94;5044452;28;20036;-83
2023/09/01 07:19:31;;;;;;;0.00;0.00;;;;;;;16.91;100.00;100956.56;5034298;28;20049;-82
2023/09/01 07:21:56;;;;;;;0.10;0.10;;;;;;;16.94;100.00;100952.78;5061059;28;20090;-83
2023/09/01 07:24:22;;;;;;;0.00;0.00;;;;;;;16.96;100.00;100961.31;5046044;28;20112;-82
2023/09/01 07:26:47;;;;;;;0.17;0.00;;;;;;;17.00;100.00;100958.16;5035862;28;20466;-83
2023/09/01 07:29:13;;;;;;;0.00;0.00;;;;;;;17.05;100.00;100960.25;5055208;28;20390;-83
2023/09/01 07:31:38;;;;;;;0.00;0.00;;;;;;;17.10;100.00;100964.00;5057684;28;20043;-82
2023/09/01 07:34:04;;;;;;;0.00;0.00;;;;;;;17.12;100.00;100961.19;5057823;28;20139;-83
2023/09/01 07:36:29;;;;;;;0.00;0.00;;;;;;;17.14;100.00;100964.47;5051530;28;20033;-83
2023/09/01 07:38:54;;;;;;;0.00;0.00;;;;;;;17.16;100.00;100959.84;5049961;28;20033;-82
2023/09/01 07:41:20;;;;;;;0.00;0.00;;;;;;;17.20;100.00;100966.41;5045246;28;20033;-83
2023/09/01 07:43:45;;;;;;;0.00;0.00;;;;;;;17.24;100.00;100967.69;5044703;28;20037;-83
2023/09/01 07:46:11;;;;;;;0.00;0.00;;;;;;;17.33;100.00;100969.28;5041345;28;20037;-82
2023/09/01 07:48:37;;;;;;;0.00;0.00;;;;;;;17.45;100.00;100973.16;5046495;28;20025;-83
2023/09/01 07:51:02;;;;;;;0.00;0.00;;;;;;;17.44;100.00;100971.50;5044003;28;20152;-82
2023/09/01 07:53:27;;;;;;;0.00;0.00;;;;;;;17.40;100.00;100972.84;5034628;28;20899;-82
2023/09/01 07:55:53;;;;;;;0.00;0.00;;;;;;;17.49;100.00;100978.84;5033417;28;20037;-83
2023/09/01 07:58:20;;;;;;;0.00;0.00;;;;;;;17.50;100.00;100981.31;5038016;28;20045;-83
2023/09/01 08:00:45;;;;;;;0.00;0.00;;;;;;;17.49;100.00;100984.94;5046115;28;20043;-82
2023/09/01 08:03:11;;;;;;;0.00;0.00;;;;;;;17.51;100.00;100982.13;5034176;28;20111;-82
2023/09/01 08:05:37;;;;;;;0.00;0.00;;;;;;;17.50;100.00;100978.66;5050023;28;20028;-83
2023/09/01 08:08:04;;;;;;;0.00;0.00;;;;;;;17.48;100.00;100980.69;5044901;28;20025;-83
2023/09/01 08:10:30;;;;;;;0.08;0.00;;;;;;;17.60;100.00;100975.78;5054336;28;20029;-82
2023/09/01 08:12:55;;;;;;;0.00;0.00;;;;;;;17.66;100.00;100984.84;5043146;28;20032;-83
2023/09/01 08:15:20;;;;;;;0.00;0.00;;;;;;;17.68;100.00;100983.66;5046635;28;20040;-83
2023/09/01 08:17:46;;;;;;;0.00;0.00;;;;;;;17.69;100.00;100987.13;5037278;28;20136;-83
2023/09/01 08:20:11;;;;;;;0.00;0.00;;;;;;;17.77;100.00;100982.59;5050375;28;20032;-82
2023/09/01 08:22:37;;;;;;;0.00;0.00;;;;;;;17.83;100.00;100987.16;5045858;28;20028;-82
2023/09/01 08:25:03;;;;;;;0.00;0.00;;;;;;;17.99;100.00;100980.91;5039425;28;20041;-82
2023/09/01 08:27:28;;;;;;;0.00;0.00;;;;;;;18.04;100.00;100983.81;5048957;28;20475;-82
2023/09/01 08:29:56;;;;;;;0.00;0.00;;;;;;;18.30;100.00;100982.56;5038202;28;20044;-82
2023/09/01 08:32:21;;;;;;;0.20;0.00;;;;;;;18.44;100.00;100984.34;5052617;28;20040;-82
2023/09/01 08:34:47;;;;;;;0.00;0.00;;;;;;;18.57;100.00;100985.34;5040778;28;20498;-82
2023/09/01 08:37:15;;;;;;;0.00;0.00;;;;;;;18.67;100.00;100986.91;5043801;28;20026;-82
2023/09/01 08:39:41;;;;;;;0.00;0.00;;;;;;;18.70;100.00;100989.19;5034643;28;20116;-82
2023/09/01 08:42:08;;;;;;;0.00;0.00;;;;;;;18.76;100.00;100993.72;5038110;28;20363;-82
2023/09/01 08:44:35;;;;;;;0.00;0.00;;;;;;;18.76;100.00;100989.28;5039586;28;20486;-82
2023/09/01 08:47:04;;;;;;;0.00;0.00;;;;;;;18.81;100.00;100992.19;5043561;28;20037;-82
2023/09/01 08:49:29;;;;;;;0.00;0.00;;;;;;;18.85;100.00;100987.34;5050704;28;20386;-82
2023/09/01 08:51:57;;;;;;;0.00;0.00;;;;;;;18.97;100.00;100985.84;5034002;28;20033;-82
2023/09/01 08:54:23;;;;;;;0.00;0.00;;;;;;;19.15;100.00;100988.06;5049522;28;20041;-82
2023/09/01 08:56:49;;;;;;;0.03;0.00;;;;;;;19.31;100.00;100998.41;5048153;28;20489;-83
2023/09/01 08:59:15;;;;;;;0.00;0.00;;;;;;;19.47;100.00;100990.19;5058969;28;20127;-82
2023/09/01 09:01:40;;;;;;;0.00;0.00;;;;;;;19.52;100.00;100990.47;5047020;28;20452;-82
2023/09/01 09:04:06;;;;;;;0.00;0.00;;;;;;;19.63;100.00;100981.22;5049154;28;20119;-82
2023/09/01 09:06:32;;;;;;;0.05;0.00;;;;;;;19.75;100.00;100981.50;5044847;28;20031;-82
2023/09/01 09:09:29;;;;;;;0.00;0.00;;;;;;;19.84;100.00;100980.38;5046762;28;20040;-82
2023/09/01 09:11:56;;;;;;;0.00;0.00;;;;;;;19.85;100.00;100984.63;5044612;28;20075;-82
2023/09/01 09:14:22;;;;;;;0.00;0.00;;;;;;;19.93;100.00;100979.19;5045205;28;20102;-82
2023/09/01 09:16:52;;;;;;;0.00;0.00;;;;;;;19.99;100.00;100972.31;5042178;28;20482;-83
2023/09/01 09:19:19;;;;;;;0.00;0.00;;;;;;;20.01;100.00;100972.94;5050127;28;20051;-82
2023/09/01 09:21:44;;;;;;;0.90;0.00;;;;;;;20.07;100.00;100975.63;5044381;28;20041;-82
2023/09/01 09:24:10;;;;;;;0.00;0.00;;;;;;;20.06;100.00;100976.63;5035760;28;20029;-83
2023/09/01 09:26:35;;;;;;;0.00;0.00;;;;;;;20.09;100.00;100981.53;5050987;28;20029;-83
2023/09/01 09:29:06;;;;;;;0.00;0.00;;;;;;;20.17;100.00;100973.44;5047792;28;20039;-83
2023/09/01 09:31:36;;;;;;;0.00;0.00;;;;;;;20.25;100.00;100971.66;5046455;28;20085;-83
2023/09/01 09:34:15;;;;;;;0.00;0.00;;;;;;;20.32;100.00;100980.47;5060677;28;20074;-83
2023/09/01 09:36:40;;;;;;;0.00;0.00;;;;;;;20.45;100.00;100972.59;5037610;28;20096;-83
2023/09/01 09:39:21;;;;;;;0.00;0.00;;;;;;;20.58;100.00;100967.34;5044152;28;20378;-82
2023/09/01 09:41:47;;;;;;;0.00;0.00;;;;;;;20.42;100.00;100970.34;5046212;28;20033;-83
2023/09/01 09:44:28;;;;;;;0.00;0.00;;;;;;;20.41;100.00;100966.06;5052050;28;20025;-82
2023/09/01 09:46:54;;;;;;;0.00;0.00;;;;;;;20.61;100.00;100968.78;5042737;28;20033;-83
2023/09/01 09:49:21;;;;;;;0.00;0.00;;;;;;;20.67;100.00;100974.13;5057118;28;20028;-83
2023/09/01 09:51:51;;;;;;;0.00;0.00;;;;;;;20.73;100.00;100968.03;5044536;28;20051;-83
2023/09/01 09:54:20;;;;;;;0.00;0.00;;;;;;;20.66;100.00;100971.66;5041007;28;20045;-83
2023/09/01 09:56:49;;;;;;;0.00;0.00;;;;;;;20.64;100.00;100966.56;5046410;28;20508;-83
2023/09/01 09:59:21;;;;;;;0.00;0.00;;;;;;;20.57;100.00;100971.03;5061080;28;20036;-82
2023/09/01 10:01:49;;;;;;;0.00;0.00;;;;;;;20.57;100.00;100964.91;5058558;28;20088;-82
2023/09/01 10:04:17;;;;;;;0.00;0.00;;;;;;;20.72;100.00;100963.75;5037982;28;20040;-82
2023/09/01 10:06:43;;;;;;;0.00;0.00;;;;;;;20.88;100.00;100960.72;5044596;28;20061;-82
2023/09/01 10:09:10;;;;;;;0.00;0.00;;;;;;;21.01;100.00;100967.06;5048717;28;20068;-82
2023/09/01 10:11:37;;;;;;;0.00;0.00;;;;;;;21.08;100.00;100966.06;5040385;28;20049;-83
2023/09/01 10:14:05;;;;;;;0.00;0.00;;;;;;;21.14;100.00;100965.28;5050500;28;20075;-83
2023/09/01 10:16:30;;;;;;;0.00;0.00;;;;;;;21.29;100.00;100964.28;5045557;28;20039;-84
2023/09/01 10:18:56;;;;;;;0.00;0.00;;;;;;;21.39;100.00;100957.56;5047153;28;20024;-84
2023/09/01 10:21:22;;;;;;;0.00;0.00;;;;;;;21.42;100.00;100957.16;5066371;28;20119;-84
2023/09/01 10:23:48;;;;;;;0.00;0.00;;;;;;;21.53;100.00;100961.03;5050092;28;20037;-84
2023/09/01 10:26:24;;;;;;;0.00;0.00;;;;;;;21.55;100.00;100958.19;5068247;28;20502;-85
2023/09/01 10:29:06;;;;;;;0.00;0.00;;;;;;;21.66;100.00;100957.56;5051402;28;20437;-85
2023/09/01 10:31:33;;;;;;;0.00;0.00;;;;;;;21.70;100.00;100964.09;5037497;28;20559;-85
2023/09/01 10:34:13;;;;;;;0.00;0.00;;;;;;;21.73;100.00;100959.22;5057879;28;20029;-85
2023/09/01 10:36:43;;;;;;;0.00;0.00;;;;;;;21.73;100.00;100958.41;5047269;28;20036;-84
2023/09/01 10:39:24;;;;;;;0.00;0.00;;;;;;;21.80;100.00;100960.00;5051746;28;20033;-84
2023/09/01 10:41:53;;;;;;;0.00;0.00;;;;;;;21.83;100.00;100967.53;5046338;28;20974;-84
2023/09/01 10:44:21;;;;;;;0.30;0.00;;;;;;;21.89;100.00;100959.78;5052022;28;20033;-84
2023/09/01 10:46:46;;;;;;;0.00;0.00;;;;;;;21.98;100.00;100962.00;5049650;28;20037;-84
2023/09/01 10:49:15;;;;;;;0.00;0.00;;;;;;;22.15;100.00;100967.72;5047831;28;20565;-84
2023/09/01 10:51:40;;;;;;;0.00;0.00;;;;;;;22.34;100.00;100968.66;5053514;28;20437;-84
2023/09/01 10:54:15;;;;;;;0.00;0.00;;;;;;;22.30;100.00;100968.28;5044668;28;20045;-84
2023/09/01 10:56:56;;;;;;;0.30;0.00;;;;;;;22.31;100.00;100967.25;5046789;28;20033;-85
2023/09/01 10:59:29;;;;;;;0.00;0.00;;;;;;;22.43;100.00;100962.13;5059461;28;20291;-85
2023/09/01 11:01:54;;;;;;;0.00;0.00;;;;;;;22.62;100.00;100965.72;5061778;28;20170;-84
2023/09/01 11:04:20;;;;;;;0.00;0.00;;;;;;;22.75;100.00;100963.78;5051174;28;20120;-84
2023/09/01 11:07:00;;;;;;;0.00;0.00;;;;;;;22.73;100.00;100968.50;5050426;28;20037;-84
2023/09/01 11:09:32;;;;;;;0.05;0.00;;;;;;;22.67;100.00;100963.25;5050436;28;20020;-84
2023/09/01 11:11:58;;;;;;;0.15;0.00;;;;;;;22.60;100.00;100965.13;5045779;28;20082;-84
2023/09/01 11:14:23;;;;;;;0.00;0.00;;;;;;;22.51;100.00;100972.50;5045438;28;20538;-85
2023/09/01 11:16:49;;;;;;;0.30;0.00;;;;;;;22.39;100.00;100966.22;5047873;28;20032;-85